Auburn, WV (26325)

6:38 AM EDT on August 29, 2015 (GMT -0400)
W8PY @ Harmony | | Change Station
CLOSE
Current Station
Personal Weather Station
Location: West Union, WV
Elevation: 852 ft
Nearby Weather Stations

Elev 852 ft 39.17 °N, 80.82 °W | Updated 7 minutes ago

Partly Cloudy
Partly Cloudy
54.2 °F
Feels Like 54.2 °F
N
0.0
Wind Variable Wind from WSW
Gusts 0.0 mph

Today
High -- | Low -- °F
--% Chance of Precip.
Yesterday
High -- | Low -- °F
Precip. -- in
6:49 AM 7:59 PM
Full, 100% visible
Pressure 30.20 in
Visibility 8.0 miles
Clouds Clear
Dew Point 45 °F
Humidity 71%
Rainfall 0.00 in
Snow Depth Not available.
UV 0 out of 12
Pollen 9.30 out of 12
Air Quality Not available.
Flu Activity Not available.
METAR KW22 291015Z AUTO 00000KT 8SM CLR 14/14 A3020 RMK AO2
Pressure 30.20 in
Visibility 8.0 miles
Clouds Clear
Dew Point 45 °F
Humidity 71%
Rainfall 0.00 in
Snow Depth Not available.
UV 0 out of 12
Pollen 9.30 out of 12
Air Quality Not available.
Flu Activity Not available.
METAR KW22 291015Z AUTO 00000KT 8SM CLR 14/14 A3020 RMK AO2

10-Day Weather Forecast

×

Almanac

Astronomy

Aug. 29, 2015 Rise Set
Actual Time
Civil Twilight
Nautical Twilight
Astronomical Twilight
Moon
Length of Visible Light
Length of Day
Tomorrow will be .
, % of the Moon is Illuminated

Today's Extremes

State Highs State Lows

Community

WunderPhotos

Upload Photos

1,850,633 photos uploaded!

WunderBlogs® & News

Nearby

Air Quality

  Air Quality AQ Index Pollutant
Not available.

Snow Depth

Station Depth Elevation

Earthquake Activity

City Distance Mag. Time & Date
Minimum magnitude displayed is 2.5.

Coastal Water Temperatures

Place Temperature

Stations

Nearby Weather Stations

Station Location Temp. Windchill Dew Point Humidity Wind Precip. Elev Updated Type